Time;durP1;ratioP1;P1;durP2;ratioP2;P2;SDS_P1;SDS_P2;PMS_P1;PMS_P2;Temp;Humidity;BMP_temperature;BMP_pressure;BME280_temperature;BME280_humidity;BME280_pressure;Samples;Min_cycle;Max_cycle;Signal;HPM_P1;HPM_P2
2022/02/15 00:04:48;;;;;;;9.00;4.23;;;;;5.60;100236.00;;;;10445604;28;20251;-78
2022/02/15 00:09:50;;;;;;;11.00;4.33;;;;;5.60;100227.00;;;;10467299;28;20671;-78
2022/02/15 00:14:52;;;;;;;9.63;3.77;;;;;5.50;100224.00;;;;10454241;28;20197;-78
2022/02/15 00:19:55;;;;;;;8.87;3.67;;;;;5.40;100241.00;;;;10440547;28;20210;-79
2022/02/15 00:24:57;;;;;;;6.63;3.87;;;;;5.30;100246.00;;;;10466030;28;20193;-77
2022/02/15 00:29:59;;;;;;;10.67;4.27;;;;;5.20;100246.00;;;;10417603;28;20206;-79
2022/02/15 00:35:00;;;;;;;6.27;3.93;;;;;5.10;100247.00;;;;10433577;28;20206;-78
2022/02/15 00:40:04;;;;;;;8.27;4.60;;;;;5.10;100245.00;;;;10467437;28;20190;-78
2022/02/15 00:45:06;;;;;;;8.53;4.60;;;;;5.00;100258.00;;;;10433537;28;20190;-78
2022/02/15 00:50:09;;;;;;;10.83;4.80;;;;;5.10;100269.00;;;;10433804;28;20224;-78
2022/02/15 00:55:13;;;;;;;9.07;4.63;;;;;5.20;100269.00;;;;10433961;28;20246;-78
2022/02/15 01:00:16;;;;;;;17.73;5.27;;;;;5.30;100279.00;;;;10417337;28;20186;-78
2022/02/15 01:05:18;;;;;;;9.93;5.13;;;;;5.50;100280.00;;;;10432927;28;20248;-79
2022/02/15 01:10:20;;;;;;;14.90;5.40;;;;;5.60;100287.00;;;;10432916;28;20199;-79
2022/02/15 01:15:23;;;;;;;14.40;5.00;;;;;5.80;100288.00;;;;10450711;28;20761;-78
2022/02/15 01:20:25;;;;;;;10.63;6.00;;;;;5.80;100283.00;;;;10456550;28;20440;-79
2022/02/15 01:25:28;;;;;;;16.07;5.93;;;;;5.70;100283.00;;;;10447149;28;20649;-79
2022/02/15 01:30:30;;;;;;;11.30;4.73;;;;;5.70;100295.00;;;;10447258;28;20190;-79
2022/02/15 01:35:32;;;;;;;11.83;5.93;;;;;5.70;100306.00;;;;10430708;28;20241;-79
2022/02/15 01:40:35;;;;;;;16.53;5.77;;;;;5.70;100313.00;;;;10414899;28;20715;-79
2022/02/15 01:45:38;;;;;;;15.73;6.20;;;;;5.70;100324.00;;;;10435467;28;20296;-78
2022/02/15 01:50:40;;;;;;;8.77;5.37;;;;;5.70;100326.00;;;;10472650;28;20197;-78
2022/02/15 01:55:42;;;;;;;12.37;5.23;;;;;5.60;100338.00;;;;10437871;28;20209;-79
2022/02/15 02:00:44;;;;;;;18.33;7.17;;;;;5.60;100325.00;;;;10422071;28;20202;-77
2022/02/15 02:05:59;;;;;;;14.97;6.60;;;;;5.60;100332.00;;;;10431083;28;20244;-77
2022/02/15 02:11:07;;;;;;;13.77;7.07;;;;;5.50;100331.00;;;;10427358;28;20194;-77
2022/02/15 02:16:29;;;;;;;10.97;6.90;;;;;5.60;100333.00;;;;10444162;28;20215;-78
2022/02/15 02:21:48;;;;;;;14.10;7.20;;;;;5.70;100338.00;;;;10414413;28;20730;-78
2022/02/15 02:26:52;;;;;;;14.30;7.80;;;;;5.70;100348.00;;;;10427980;28;20190;-78
2022/02/15 02:31:55;;;;;;;17.83;8.73;;;;;5.70;100353.00;;;;10444746;28;20252;-78
2022/02/15 02:37:01;;;;;;;15.90;7.93;;;;;5.70;100348.00;;;;10412447;28;20221;-78
2022/02/15 02:42:03;;;;;;;18.10;8.10;;;;;5.60;100343.00;;;;10394836;28;20186;-78
2022/02/15 02:47:06;;;;;;;14.80;7.37;;;;;5.50;100356.00;;;;10434742;28;20746;-78
2022/02/15 02:52:08;;;;;;;15.23;8.10;;;;;5.30;100359.00;;;;10410678;28;20233;-77
2022/02/15 02:57:15;;;;;;;17.07;9.37;;;;;5.30;100367.00;;;;10427591;28;20202;-77
2022/02/15 03:02:19;;;;;;;17.07;9.23;;;;;5.30;100361.00;;;;10437764;28;20239;-77
2022/02/15 03:07:21;;;;;;;18.10;10.30;;;;;5.30;100368.00;;;;10467526;28;20217;-77
2022/02/15 03:12:23;;;;;;;26.83;11.00;;;;;5.40;100390.00;;;;10426074;28;20546;-77
2022/02/15 03:17:25;;;;;;;17.93;10.40;;;;;5.50;100375.00;;;;10442092;28;20218;-78
2022/02/15 03:22:29;;;;;;;21.37;11.87;;;;;5.50;100376.00;;;;10410041;28;20225;-77
2022/02/15 03:27:36;;;;;;;20.93;11.23;;;;;5.50;100391.00;;;;10426062;28;20218;-78
2022/02/15 03:32:39;;;;;;;25.60;11.43;;;;;5.50;100394.00;;;;10439093;28;20197;-77
2022/02/15 03:37:42;;;;;;;18.50;11.27;;;;;5.50;100411.00;;;;10450734;28;20193;-77
2022/02/15 03:48:06;;;;;;;23.03;11.83;;;;;5.50;100433.00;;;;10457555;28;20221;-77
2022/02/15 03:53:09;;;;;;;24.77;12.97;;;;;5.60;100437.00;;;;10440518;28;20209;-77
2022/02/15 03:58:12;;;;;;;21.50;12.53;;;;;5.60;100446.00;;;;10424612;28;20198;-77
2022/02/15 04:03:15;;;;;;;20.10;12.83;;;;;5.70;100447.00;;;;10463467;28;20599;-78
2022/02/15 04:08:21;;;;;;;22.00;11.50;;;;;5.70;100453.00;;;;10465814;28;20273;-78
2022/02/15 04:13:24;;;;;;;19.23;12.63;;;;;5.70;100465.00;;;;10448965;28;20280;-78
2022/02/15 04:18:26;;;;;;;20.33;11.17;;;;;5.80;100467.00;;;;10465318;28;20355;-77
2022/02/15 04:23:31;;;;;;;17.80;11.37;;;;;5.80;100476.00;;;;10465806;28;20194;-77
2022/02/15 04:28:33;;;;;;;19.17;11.10;;;;;5.80;100468.00;;;;10485012;28;20204;-77
2022/02/15 04:33:42;;;;;;;16.87;10.40;;;;;5.80;100489.00;;;;10423419;28;20206;-77
2022/02/15 04:38:45;;;;;;;14.27;10.10;;;;;5.90;100495.00;;;;10405869;28;20194;-77
2022/02/15 04:43:46;;;;;;;18.70;10.20;;;;;5.80;100497.00;;;;10419412;28;20237;-78
2022/02/15 04:48:57;;;;;;;17.13;10.20;;;;;5.80;100498.00;;;;10462682;28;20194;-77
2022/02/15 04:53:59;;;;;;;14.70;9.87;;;;;5.80;100504.00;;;;10446282;28;20214;-77
2022/02/15 04:59:02;;;;;;;16.87;9.57;;;;;5.80;100509.00;;;;10480588;28;20189;-77
2022/02/15 05:04:05;;;;;;;16.33;9.23;;;;;5.70;100516.00;;;;10460005;28;20182;-77
2022/02/15 05:09:10;;;;;;;16.57;9.10;;;;;5.60;100521.00;;;;10413499;28;20196;-77
2022/02/15 05:14:15;;;;;;;16.40;9.03;;;;;5.60;100537.00;;;;10422980;28;20217;-78
2022/02/15 05:19:19;;;;;;;21.83;9.60;;;;;5.70;100532.00;;;;10488865;28;20217;-78
2022/02/15 05:24:32;;;;;;;15.27;8.73;;;;;5.70;100549.00;;;;10488266;28;20196;-76
2022/02/15 05:29:37;;;;;;;19.27;9.10;;;;;5.70;100564.00;;;;10445840;28;20190;-78
2022/02/15 05:34:58;;;;;;;14.83;8.00;;;;;5.80;100542.00;;;;10415957;28;20202;-77
2022/02/15 05:40:00;;;;;;;15.40;8.20;;;;;5.80;100554.00;;;;10427273;28;20190;-76
2022/02/15 05:45:31;;;;;;;15.93;7.90;;;;;5.80;100555.00;;;;10443135;28;20583;-76
2022/02/15 05:50:55;;;;;;;14.63;7.77;;;;;5.80;100555.00;;;;10468820;28;20201;-76
2022/02/15 05:56:03;;;;;;;17.97;8.30;;;;;5.80;100566.00;;;;10451210;28;20216;-76
2022/02/15 06:01:24;;;;;;;16.47;8.60;;;;;5.80;100558.00;;;;10412063;28;20236;-78
2022/02/15 06:06:26;;;;;;;13.03;7.07;;;;;5.70;100563.00;;;;10410453;28;20239;-75
2022/02/15 06:11:28;;;;;;;13.23;7.97;;;;;5.60;100569.00;;;;10436324;28;20243;-77
2022/02/15 06:16:32;;;;;;;18.97;7.97;;;;;5.50;100586.00;;;;10452676;28;20312;-79
2022/02/15 06:21:42;;;;;;;11.50;6.73;;;;;5.50;100588.00;;;;10426235;28;20198;-78
2022/02/15 06:26:50;;;;;;;17.53;7.30;;;;;5.60;100589.00;;;;10447459;28;20232;-78
2022/02/15 06:32:05;;;;;;;12.73;6.90;;;;;5.60;100590.00;;;;10469129;28;20233;-76
2022/02/15 06:37:07;;;;;;;12.07;6.60;;;;;5.60;100603.00;;;;10452210;28;20190;-76
2022/02/15 06:42:14;;;;;;;14.33;5.50;;;;;5.60;100611.00;;;;10409028;28;20225;-76
2022/02/15 06:47:19;;;;;;;7.87;5.60;;;;;5.50;100624.00;;;;10406777;28;20202;-76
2022/02/15 06:52:21;;;;;;;14.33;6.03;;;;;5.60;100626.00;;;;10457800;28;20211;-76
2022/02/15 06:57:34;;;;;;;12.57;5.27;;;;;5.60;100626.00;;;;10460317;28;20688;-78
2022/02/15 07:02:36;;;;;;;13.37;5.03;;;;;5.40;100642.00;;;;10476645;28;20194;-77
2022/02/15 07:07:42;;;;;;;10.43;4.60;;;;;5.30;100651.00;;;;10450971;28;20280;-78
2022/02/15 07:12:50;;;;;;;18.23;5.00;;;;;5.40;100655.00;;;;10427984;28;20210;-78
2022/02/15 07:17:59;;;;;;;10.47;4.67;;;;;5.40;100672.00;;;;10450920;28;20224;-78
2022/02/15 07:23:16;;;;;;;12.60;4.73;;;;;5.40;100673.00;;;;10465835;28;20599;-77
2022/02/15 07:28:53;;;;;;;9.10;4.73;;;;;5.30;100684.00;;;;10434518;28;20201;-78
2022/02/15 07:33:55;;;;;;;9.17;4.03;;;;;5.30;100693.00;;;;10427250;28;20244;-78
2022/02/15 07:38:57;;;;;;;8.67;4.40;;;;;5.20;100700.00;;;;10477037;28;20209;-78
2022/02/15 07:43:59;;;;;;;11.30;4.53;;;;;5.20;100698.00;;;;10426199;28;20194;-78
2022/02/15 07:49:06;;;;;;;6.63;4.03;;;;;5.30;100704.00;;;;10408848;28;20186;-78
2022/02/15 07:54:08;;;;;;;8.40;3.80;;;;;5.40;100709.00;;;;10407625;28;20210;-78
2022/02/15 07:59:10;;;;;;;9.57;3.67;;;;;5.50;100707.00;;;;10461053;28;20239;-77
2022/02/15 08:04:13;;;;;;;9.30;3.83;;;;;5.70;100715.00;;;;10413281;28;20640;-78
2022/02/15 08:09:24;;;;;;;8.17;4.00;;;;;5.80;100727.00;;;;10461311;28;20267;-78
2022/02/15 08:14:25;;;;;;;9.27;3.50;;;;;6.00;100734.00;;;;10458257;28;20262;-77
2022/02/15 08:19:27;;;;;;;8.77;3.43;;;;;6.10;100721.00;;;;10464552;28;20213;-78
2022/02/15 08:24:30;;;;;;;10.50;2.60;;;;;6.20;100732.00;;;;10409170;28;20206;-77
2022/02/15 08:29:34;;;;;;;12.87;2.83;;;;;6.40;100737.00;;;;10424325;28;20599;-78
2022/02/15 08:34:35;;;;;;;7.57;2.23;;;;;6.50;100734.00;;;;10463879;28;20206;-77
2022/02/15 08:39:37;;;;;;;10.47;2.23;;;;;6.80;100737.00;;;;10483366;28;20243;-78
2022/02/15 08:44:39;;;;;;;4.83;2.20;;;;;7.00;100759.00;;;;10470566;28;20590;-77
2022/02/15 08:49:41;;;;;;;7.97;2.03;;;;;7.40;100748.00;;;;10463603;28;20221;-77
2022/02/15 08:54:43;;;;;;;6.87;2.43;;;;;7.80;100747.00;;;;10449050;28;20259;-77
2022/02/15 08:59:45;;;;;;;12.67;2.57;;;;;8.00;100744.00;;;;10451672;28;20651;-77
2022/02/15 09:04:47;;;;;;;9.10;2.20;;;;;8.40;100735.00;;;;10473396;28;20195;-77
2022/02/15 09:09:49;;;;;;;9.00;2.33;;;;;8.70;100739.00;;;;10436435;28;20269;-77
2022/02/15 09:14:52;;;;;;;5.47;1.87;;;;;8.90;100734.00;;;;10465375;28;20205;-77
2022/02/15 09:19:55;;;;;;;7.37;2.27;;;;;9.20;100731.00;;;;10466932;28;20616;-77
2022/02/15 09:24:57;;;;;;;6.87;2.50;;;;;9.30;100730.00;;;;10422063;28;20660;-77
2022/02/15 09:29:59;;;;;;;10.70;3.47;;;;;9.60;100730.00;;;;10427101;28;20233;-77
2022/02/15 09:35:01;;;;;;;15.63;5.57;;;;;9.80;100729.00;;;;10466709;28;20259;-77
2022/02/15 09:40:05;;;;;;;5.23;2.13;;;;;10.00;100730.00;;;;10437966;28;20646;-77
2022/02/15 09:45:10;;;;;;;11.63;2.03;;;;;10.20;100738.00;;;;10447358;28;20276;-77
2022/02/15 09:50:12;;;;;;;5.37;2.73;;;;;10.30;100727.00;;;;10466094;28;20190;-77
2022/02/15 09:55:14;;;;;;;10.83;2.47;;;;;10.50;100729.00;;;;10467610;28;20214;-77
2022/02/15 10:00:21;;;;;;;11.37;2.70;;;;;10.70;100735.00;;;;10440231;28;20221;-77
2022/02/15 10:05:32;;;;;;;14.73;2.73;;;;;10.90;100743.00;;;;10460578;28;20179;-77
2022/02/15 10:10:37;;;;;;;7.10;2.27;;;;;11.10;100735.00;;;;10431401;28;20579;-77
2022/02/15 10:15:44;;;;;;;9.37;2.30;;;;;11.40;100733.00;;;;10443502;28;20297;-77
2022/02/15 10:20:47;;;;;;;8.77;2.37;;;;;11.50;100750.00;;;;10450560;28;20202;-76
2022/02/15 10:25:50;;;;;;;6.37;2.20;;;;;11.60;100742.00;;;;10433213;28;20197;-74
2022/02/15 10:31:14;;;;;;;7.97;2.47;;;;;11.80;100756.00;;;;10421887;28;20284;-77
2022/02/15 10:36:16;;;;;;;6.93;1.77;;;;;12.00;100756.00;;;;10457173;28;20264;-74
2022/02/15 10:41:25;;;;;;;8.43;2.30;;;;;12.30;100753.00;;;;10465560;28;20272;-74
2022/02/15 10:46:30;;;;;;;8.53;2.27;;;;;12.50;100759.00;;;;10439282;28;20190;-74
2022/02/15 10:51:33;;;;;;;8.03;2.40;;;;;13.10;100767.00;;;;10436491;28;20260;-74
2022/02/15 10:56:36;;;;;;;5.63;1.93;;;;;13.10;100760.00;;;;10426925;28;20245;-74
2022/02/15 11:01:41;;;;;;;5.73;1.83;;;;;11.70;100766.00;;;;10452879;28;20258;-74
2022/02/15 11:06:43;;;;;;;8.27;2.50;;;;;11.60;100756.00;;;;10423324;28;20198;-74
2022/02/15 11:12:07;;;;;;;9.10;1.87;;;;;12.30;100749.00;;;;10447706;28;20209;-75
2022/02/15 11:17:13;;;;;;;7.27;2.30;;;;;12.70;100755.00;;;;10406450;28;20226;-74
2022/02/15 11:22:20;;;;;;;8.30;2.17;;;;;12.20;100757.00;;;;10447528;28;20201;-75
2022/02/15 11:27:22;;;;;;;8.57;2.23;;;;;12.40;100740.00;;;;10443957;28;20197;-75
2022/02/15 11:32:42;;;;;;;5.90;2.33;;;;;12.50;100748.00;;;;10447657;28;20226;-74
2022/02/15 11:37:44;;;;;;;11.87;2.60;;;;;13.00;100717.00;;;;10439165;28;20205;-75
2022/02/15 11:42:52;;;;;;;10.53;1.97;;;;;13.30;100705.00;;;;10438999;28;20244;-75
2022/02/15 11:48:03;;;;;;;6.23;1.60;;;;;13.50;100710.00;;;;10435697;28;20202;-75
2022/02/15 11:53:07;;;;;;;8.37;1.77;;;;;13.70;100702.00;;;;10445480;28;20201;-75
2022/02/15 11:58:09;;;;;;;6.43;1.67;;;;;13.80;100698.00;;;;10421850;28;20225;-75
2022/02/15 12:03:18;;;;;;;5.67;2.20;;;;;14.00;100692.00;;;;10446396;28;20235;-75
2022/02/15 12:08:22;;;;;;;7.30;1.57;;;;;13.50;100706.00;;;;10437275;28;20232;-75
2022/02/15 12:13:24;;;;;;;8.20;2.23;;;;;13.30;100695.00;;;;10421081;28;20256;-75
2022/02/15 12:18:31;;;;;;;5.30;1.67;;;;;13.30;100687.00;;;;10472488;28;20214;-75
2022/02/15 12:23:39;;;;;;;5.43;1.87;;;;;13.50;100668.00;;;;10437473;28;20546;-74
2022/02/15 12:28:56;;;;;;;9.00;2.17;;;;;13.80;100654.00;;;;10470323;28;20807;-75
2022/02/15 12:33:58;;;;;;;9.20;2.13;;;;;13.90;100653.00;;;;10426480;28;20205;-75
2022/02/15 12:39:07;;;;;;;5.63;2.17;;;;;13.60;100670.00;;;;10466368;28;20221;-75
2022/02/15 12:44:10;;;;;;;9.67;2.13;;;;;13.60;100664.00;;;;10428890;28;20240;-75
2022/02/15 12:49:12;;;;;;;5.80;1.73;;;;;13.80;100643.00;;;;10466179;28;20280;-75
2022/02/15 12:54:18;;;;;;;12.97;2.37;;;;;13.80;100634.00;;;;10453341;28;20610;-75
2022/02/15 12:59:25;;;;;;;5.10;1.50;;;;;14.10;100627.00;;;;10499226;28;20656;-75
2022/02/15 13:04:27;;;;;;;9.13;1.97;;;;;14.00;100609.00;;;;10496983;28;20548;-74
2022/02/15 13:09:29;;;;;;;11.03;1.97;;;;;14.10;100608.00;;;;10469410;28;20202;-75
2022/02/15 13:14:32;;;;;;;5.20;1.40;;;;;13.80;100618.00;;;;10453581;28;20209;-75
2022/02/15 13:25:43;;;;;;;4.80;1.70;;;;;13.80;100581.00;;;;10058231;29;20263;-76
2022/02/15 13:30:48;;;;;;;6.40;1.50;;;;;13.00;100593.00;;;;10048159;29;20249;-76
2022/02/15 13:35:59;;;;;;;5.87;1.50;;;;;12.70;100580.00;;;;10010756;29;20209;-76
2022/02/15 13:41:02;;;;;;;4.07;1.57;;;;;12.90;100556.00;;;;10035195;29;20202;-76
2022/02/15 13:46:10;;;;;;;7.27;1.73;;;;;13.10;100543.00;;;;10042164;29;20672;-75
2022/02/15 13:51:13;;;;;;;5.17;1.57;;;;;13.40;100545.00;;;;10035076;29;20201;-75
2022/02/15 13:56:18;;;;;;;8.67;2.00;;;;;13.10;100546.00;;;;10014096;29;20217;-75
2022/02/15 14:01:23;;;;;;;8.23;1.90;;;;;12.40;100546.00;;;;10029850;29;20201;-75
2022/02/15 14:06:25;;;;;;;10.57;2.43;;;;;12.30;100539.00;;;;10015056;29;20267;-75
2022/02/15 14:11:27;;;;;;;8.97;2.77;;;;;12.00;100534.00;;;;10036052;29;20661;-75
2022/02/15 14:16:29;;;;;;;8.97;2.27;;;;;12.00;100517.00;;;;10042560;29;20209;-75
2022/02/15 14:21:36;;;;;;;7.40;2.10;;;;;12.30;100512.00;;;;10000219;29;20716;-75
2022/02/15 14:26:39;;;;;;;9.87;2.40;;;;;12.40;100515.00;;;;10030666;29;20243;-75
2022/02/15 14:31:41;;;;;;;9.77;2.67;;;;;12.20;100503.00;;;;10020092;29;20254;-75
2022/02/15 14:36:43;;;;;;;8.03;2.27;;;;;12.00;100514.00;;;;10027718;29;20652;-75
2022/02/15 14:41:45;;;;;;;10.90;2.53;;;;;11.60;100512.00;;;;10025540;29;20212;-75
2022/02/15 14:46:47;;;;;;;9.57;2.50;;;;;11.40;100492.00;;;;10043751;29;20652;-75
2022/02/15 14:51:52;;;;;;;7.50;2.33;;;;;11.20;100472.00;;;;10043266;29;20204;-75
2022/02/15 14:56:54;;;;;;;9.13;2.07;;;;;11.20;100465.00;;;;10020763;29;20225;-75
2022/02/15 15:01:56;;;;;;;7.43;2.23;;;;;11.10;100454.00;;;;10011068;29;20213;-76
2022/02/15 15:07:05;;;;;;;10.93;2.13;;;;;11.10;100457.00;;;;10013352;29;20193;-76
2022/02/15 15:12:08;;;;;;;6.57;2.30;;;;;11.10;100441.00;;;;10031933;29;20750;-75
2022/02/15 15:17:10;;;;;;;6.37;2.10;;;;;11.00;100435.00;;;;9989210;29;20605;-76
2022/02/15 15:22:17;;;;;;;5.83;1.40;;;;;10.80;100439.00;;;;10024597;29;20263;-75
2022/02/15 15:27:21;;;;;;;7.57;1.63;;;;;10.70;100426.00;;;;10011964;29;20200;-75
2022/02/15 15:32:27;;;;;;;8.80;1.90;;;;;10.40;100415.00;;;;10043627;29;20561;-75
2022/02/15 15:37:33;;;;;;;8.77;1.93;;;;;10.40;100421.00;;;;10009816;29;20618;-75
2022/02/15 15:42:35;;;;;;;7.20;1.50;;;;;10.40;100408.00;;;;10023647;29;20229;-75
2022/02/15 15:47:37;;;;;;;10.87;2.53;;;;;10.40;100388.00;;;;10018954;29;20688;-75
2022/02/15 15:52:39;;;;;;;10.30;1.87;;;;;10.30;100394.00;;;;9998980;29;20234;-75
2022/02/15 15:57:42;;;;;;;10.80;2.03;;;;;10.20;100373.00;;;;10023396;29;20217;-75
2022/02/15 16:02:44;;;;;;;7.47;1.90;;;;;10.10;100371.00;;;;9994599;29;20752;-75
2022/02/15 16:07:49;;;;;;;6.00;2.13;;;;;9.80;100363.00;;;;10022537;29;20193;-74
2022/02/15 16:12:51;;;;;;;7.43;2.53;;;;;9.50;100357.00;;;;10031025;29;20201;-75
2022/02/15 16:17:53;;;;;;;8.07;2.53;;;;;9.30;100357.00;;;;10024566;29;20618;-75
2022/02/15 16:23:00;;;;;;;9.67;2.93;;;;;9.20;100338.00;;;;9989245;29;20264;-76
2022/02/15 16:28:03;;;;;;;6.17;2.80;;;;;9.10;100336.00;;;;10001133;29;20181;-75
2022/02/15 16:33:05;;;;;;;10.27;3.00;;;;;9.10;100338.00;;;;10034771;29;20808;-75
2022/02/15 16:38:08;;;;;;;10.77;2.67;;;;;9.00;100323.00;;;;10003101;29;20204;-76
2022/02/15 16:43:11;;;;;;;6.60;1.77;;;;;8.90;100330.00;;;;10008210;29;20254;-76
2022/02/15 16:48:13;;;;;;;9.67;2.80;;;;;8.70;100323.00;;;;10026848;29;20228;-75
2022/02/15 16:53:17;;;;;;;5.60;1.97;;;;;8.60;100302.00;;;;10012439;29;20197;-75
2022/02/15 16:58:21;;;;;;;12.07;3.03;;;;;8.40;100307.00;;;;10017463;29;20197;-76
2022/02/15 17:03:26;;;;;;;14.03;4.30;;;;;8.20;100316.00;;;;10026999;29;20209;-76
2022/02/15 17:08:28;;;;;;;13.73;5.13;;;;;8.10;100285.00;;;;10010334;29;20205;-76
2022/02/15 17:13:30;;;;;;;16.13;4.23;;;;;8.00;100323.00;;;;10030285;29;20213;-77
2022/02/15 17:18:34;;;;;;;7.77;3.33;;;;;7.90;100293.00;;;;10037519;29;20205;-77
2022/02/15 17:23:36;;;;;;;5.43;2.47;;;;;7.80;100299.00;;;;10003445;29;20229;-77
2022/02/15 17:28:39;;;;;;;10.23;4.37;;;;;7.80;100302.00;;;;9995696;29;20207;-77
2022/02/15 17:33:41;;;;;;;11.20;3.87;;;;;7.70;100292.00;;;;10006728;29;20249;-77
2022/02/15 17:38:43;;;;;;;11.53;4.37;;;;;7.70;100291.00;;;;10001716;29;20292;-77
2022/02/15 17:43:48;;;;;;;15.07;4.40;;;;;7.60;100288.00;;;;10038344;29;20288;-79
2022/02/15 17:48:50;;;;;;;14.73;5.60;;;;;7.60;100287.00;;;;10026543;29;20207;-77
2022/02/15 17:53:51;;;;;;;12.07;4.43;;;;;7.60;100278.00;;;;10012399;29;20216;-80
2022/02/15 17:58:53;;;;;;;8.47;3.00;;;;;7.60;100282.00;;;;9994964;29;20213;-79
2022/02/15 18:03:57;;;;;;;5.10;2.30;;;;;7.50;100277.00;;;;10023990;29;20186;-79
2022/02/15 18:09:00;;;;;;;7.00;2.97;;;;;7.50;100258.00;;;;10010200;29;20199;-79
2022/02/15 18:14:07;;;;;;;8.47;3.37;;;;;7.50;100264.00;;;;9984397;29;20229;-80
2022/02/15 18:19:10;;;;;;;10.20;3.07;;;;;7.50;100268.00;;;;10037451;29;20685;-79
2022/02/15 18:24:12;;;;;;;7.53;4.20;;;;;7.50;100251.00;;;;10021258;29;20727;-79
2022/02/15 18:29:14;;;;;;;8.40;3.63;;;;;7.50;100251.00;;;;10040525;29;20201;-78
2022/02/15 18:34:16;;;;;;;12.60;2.90;;;;;7.50;100252.00;;;;10008214;29;20209;-79
2022/02/15 18:39:18;;;;;;;10.60;3.03;;;;;7.50;100240.00;;;;10004668;29;20205;-78
2022/02/15 18:44:20;;;;;;;7.33;3.37;;;;;7.50;100253.00;;;;10025202;29;20221;-79
2022/02/15 18:49:22;;;;;;;11.33;3.50;;;;;7.50;100262.00;;;;10027810;29;20205;-79
2022/02/15 18:54:25;;;;;;;7.87;3.63;;;;;7.50;100248.00;;;;10022587;29;20213;-79
2022/02/15 18:59:27;;;;;;;10.97;3.80;;;;;7.60;100259.00;;;;10021068;29;20632;-79
2022/02/15 19:04:29;;;;;;;7.60;3.87;;;;;7.60;100248.00;;;;9974680;29;20207;-79
2022/02/15 19:09:31;;;;;;;7.33;3.77;;;;;7.60;100252.00;;;;9995587;29;20304;-78
2022/02/15 19:14:33;;;;;;;11.00;3.87;;;;;7.60;100256.00;;;;10016400;29;20237;-78
2022/02/15 19:19:36;;;;;;;9.43;3.80;;;;;7.60;100242.00;;;;9997449;29;20270;-78
2022/02/15 19:24:38;;;;;;;8.43;3.53;;;;;7.60;100239.00;;;;10018746;29;20596;-78
2022/02/15 19:29:41;;;;;;;9.27;4.27;;;;;7.70;100232.00;;;;10000234;29;20204;-78
2022/02/15 19:34:44;;;;;;;7.63;4.40;;;;;7.70;100202.00;;;;9996233;29;20238;-78
2022/02/15 19:39:46;;;;;;;8.10;3.50;;;;;7.70;100191.00;;;;10020581;29;20826;-79
2022/02/15 19:44:49;;;;;;;12.23;4.07;;;;;7.70;100184.00;;;;10019057;29;20201;-78
2022/02/15 19:49:51;;;;;;;10.63;4.50;;;;;7.70;100177.00;;;;10023203;29;20193;-79
2022/02/15 19:54:53;;;;;;;8.33;3.80;;;;;7.70;100176.00;;;;9999938;29;20220;-79
2022/02/15 19:59:55;;;;;;;10.00;4.13;;;;;7.70;100175.00;;;;10021856;29;20222;-79
2022/02/15 20:04:57;;;;;;;6.50;3.40;;;;;7.70;100173.00;;;;10017104;29;20189;-78
2022/02/15 20:09:59;;;;;;;7.37;3.43;;;;;7.70;100160.00;;;;10016672;29;20201;-79
2022/02/15 20:15:02;;;;;;;6.47;3.90;;;;;7.70;100157.00;;;;10018873;29;20213;-79
2022/02/15 20:20:07;;;;;;;8.47;4.40;;;;;7.70;100166.00;;;;10008259;29;20193;-79
2022/02/15 20:25:10;;;;;;;7.93;4.43;;;;;7.80;100168.00;;;;10005279;29;20299;-78
2022/02/15 20:30:14;;;;;;;7.10;4.50;;;;;7.80;100168.00;;;;10030530;29;20666;-77
2022/02/15 20:35:16;;;;;;;8.23;4.17;;;;;7.80;100161.00;;;;10061864;29;20308;-79
2022/02/15 20:40:19;;;;;;;11.73;5.80;;;;;7.80;100173.00;;;;10010421;29;20229;-79
2022/02/15 20:45:22;;;;;;;9.50;4.10;;;;;7.80;100161.00;;;;10018588;29;20824;-78
2022/02/15 20:50:24;;;;;;;11.23;4.87;;;;;7.80;100168.00;;;;10020062;29;20201;-78
2022/02/15 20:55:26;;;;;;;6.37;4.33;;;;;7.80;100154.00;;;;10032997;29;20225;-78
2022/02/15 21:00:28;;;;;;;10.53;5.27;;;;;7.80;100152.00;;;;9996062;29;20194;-78
2022/02/15 21:05:33;;;;;;;9.30;5.20;;;;;7.90;100138.00;;;;10011520;29;20224;-78
2022/02/15 21:10:38;;;;;;;12.13;5.70;;;;;7.90;100140.00;;;;10033511;29;20201;-78
2022/02/15 21:15:40;;;;;;;10.47;4.77;;;;;7.90;100129.00;;;;9983871;29;20221;-78
2022/02/15 21:20:44;;;;;;;11.53;5.40;;;;;7.90;100123.00;;;;10033505;29;20213;-78
2022/02/15 21:25:46;;;;;;;9.23;5.63;;;;;7.90;100109.00;;;;10032940;29;20212;-78
2022/02/15 21:30:48;;;;;;;9.07;4.87;;;;;7.90;100100.00;;;;10033355;29;20795;-78
2022/02/15 21:35:50;;;;;;;9.80;4.40;;;;;8.00;100076.00;;;;10054859;29;20680;-78
2022/02/15 21:40:53;;;;;;;10.83;6.50;;;;;8.00;100060.00;;;;10032574;29;20212;-79
2022/02/15 21:45:55;;;;;;;8.63;4.57;;;;;8.00;100059.00;;;;10028340;29;20230;-78
2022/02/15 21:50:59;;;;;;;8.40;5.50;;;;;8.10;100062.00;;;;10027018;29;20811;-78
2022/02/15 21:56:01;;;;;;;9.03;6.23;;;;;8.00;100053.00;;;;10001336;29;20217;-79
2022/02/15 22:01:03;;;;;;;11.93;6.73;;;;;8.10;100056.00;;;;10031718;29;20470;-78
2022/02/15 22:06:05;;;;;;;9.67;7.10;;;;;8.10;100048.00;;;;10013720;29;20201;-77
2022/02/15 22:11:07;;;;;;;9.80;6.30;;;;;8.10;100044.00;;;;10030996;29;20201;-78
2022/02/15 22:16:11;;;;;;;9.30;5.60;;;;;8.10;100035.00;;;;10016907;29;20223;-77
2022/02/15 22:21:14;;;;;;;11.80;7.20;;;;;8.10;100038.00;;;;9999093;29;20237;-78
2022/02/15 22:26:16;;;;;;;13.93;7.33;;;;;8.20;100035.00;;;;10000562;29;20204;-79
2022/02/15 22:31:18;;;;;;;9.53;5.57;;;;;8.20;100025.00;;;;10046471;29;20200;-78
2022/02/15 22:36:20;;;;;;;12.33;6.77;;;;;8.20;100025.00;;;;10030066;29;20345;-78
2022/02/15 22:41:22;;;;;;;10.07;5.70;;;;;8.20;100029.00;;;;9999606;29;20208;-78
2022/02/15 22:46:24;;;;;;;8.83;5.80;;;;;8.20;100032.00;;;;10031284;29;20201;-77
2022/02/15 22:51:26;;;;;;;11.07;5.73;;;;;8.20;100018.00;;;;10010092;29;20201;-77
2022/02/15 22:56:28;;;;;;;5.57;4.50;;;;;8.30;100014.00;;;;10005011;29;20208;-77
2022/02/15 23:01:30;;;;;;;7.57;4.07;;;;;8.30;100003.00;;;;10016374;29;20292;-78
2022/02/15 23:22:34;;;;;;;9.10;4.30;;;;;8.30;100014.00;;;;10028927;29;20233;-77
2022/02/15 23:27:36;;;;;;;8.27;4.70;;;;;8.30;100001.00;;;;10029065;29;20268;-78
2022/02/15 23:32:38;;;;;;;7.53;4.20;;;;;8.30;99985.00;;;;10008899;29;20202;-78
2022/02/15 23:37:41;;;;;;;6.20;3.70;;;;;8.30;99969.00;;;;10005560;29;20598;-77
2022/02/15 23:42:44;;;;;;;8.37;3.83;;;;;8.40;99968.00;;;;9975982;29;20217;-77
2022/02/15 23:47:46;;;;;;;8.00;3.40;;;;;8.40;99964.00;;;;10024943;29;20241;-77
2022/02/15 23:52:48;;;;;;;4.97;3.67;;;;;8.40;99948.00;;;;10012423;29;20205;-78
2022/02/15 23:57:55;;;;;;;7.33;3.43;;;;;8.40;99951.00;;;;10027592;29;20209;-78
